sensor_id;sensor_type;location;lat;lon;timestamp;pressure;altitude;pressure_sealevel;temperature;humidity
49451;BME280;35336;48.400;10.886;2023-08-30T00:00:13;95679.34;;;12.16;100.00
49451;BME280;35336;48.400;10.886;2023-08-30T00:00:31;95662.56;;;12.08;100.00
49451;BME280;35336;48.400;10.886;2023-08-30T00:00:48;95662.00;;;12.06;100.00
49451;BME280;35336;48.400;10.886;2023-08-30T00:01:08;95666.81;;;12.16;100.00
49451;BME280;35336;48.400;10.886;2023-08-30T00:01:24;95671.34;;;12.16;100.00
49451;BME280;35336;48.400;10.886;2023-08-30T00:01:39;95649.22;;;12.08;100.00
49451;BME280;35336;48.400;10.886;2023-08-30T00:01:54;95675.81;;;12.22;100.00
49451;BME280;35336;48.400;10.886;2023-08-30T00:02:09;95662.88;;;12.19;100.00
49451;BME280;35336;48.400;10.886;2023-08-30T00:02:27;95663.69;;;12.19;100.00
49451;BME280;35336;48.400;10.886;2023-08-30T00:02:47;95676.19;;;12.26;100.00
49451;BME280;35336;48.400;10.886;2023-08-30T00:03:03;95672.09;;;12.23;100.00
49451;BME280;35336;48.400;10.886;2023-08-30T00:03:20;95672.31;;;12.21;100.00
49451;BME280;35336;48.400;10.886;2023-08-30T00:03:35;95667.19;;;12.20;100.00
49451;BME280;35336;48.400;10.886;2023-08-30T00:03:50;95670.09;;;12.18;100.00
49451;BME280;35336;48.400;10.886;2023-08-30T00:04:06;95670.47;;;12.22;100.00
49451;BME280;35336;48.400;10.886;2023-08-30T00:04:25;95656.38;;;12.15;100.00
49451;BME280;35336;48.400;10.886;2023-08-30T00:04:42;95659.19;;;12.20;100.00
49451;BME280;35336;48.400;10.886;2023-08-30T00:05:00;95664.06;;;12.23;100.00
49451;BME280;35336;48.400;10.886;2023-08-30T00:05:17;95666.72;;;12.23;100.00
49451;BME280;35336;48.400;10.886;2023-08-30T00:05:32;95662.66;;;12.20;100.00
49451;BME280;35336;48.400;10.886;2023-08-30T00:05:50;95662.47;;;12.22;100.00
49451;BME280;35336;48.400;10.886;2023-08-30T00:06:08;95671.88;;;12.25;100.00
49451;BME280;35336;48.400;10.886;2023-08-30T00:06:25;95659.03;;;12.15;100.00
49451;BME280;35336;48.400;10.886;2023-08-30T00:06:41;95658.94;;;12.21;100.00
49451;BME280;35336;48.400;10.886;2023-08-30T00:06:58;95666.72;;;12.23;100.00
49451;BME280;35336;48.400;10.886;2023-08-30T00:07:15;95665.31;;;12.20;100.00
49451;BME280;35336;48.400;10.886;2023-08-30T00:07:31;95649.69;;;12.05;100.00
49451;BME280;35336;48.400;10.886;2023-08-30T00:07:48;95659.25;;;12.13;100.00
49451;BME280;35336;48.400;10.886;2023-08-30T00:08:04;95666.97;;;12.21;100.00
49451;BME280;35336;48.400;10.886;2023-08-30T00:08:19;95659.03;;;12.15;100.00
49451;BME280;35336;48.400;10.886;2023-08-30T00:08:34;95668.84;;;12.21;100.00
49451;BME280;35336;48.400;10.886;2023-08-30T00:08:53;95663.31;;;12.16;100.00
49451;BME280;35336;48.400;10.886;2023-08-30T00:09:08;95663.94;;;12.18;100.00
49451;BME280;35336;48.400;10.886;2023-08-30T00:09:26;95665.13;;;12.22;100.00
49451;BME280;35336;48.400;10.886;2023-08-30T00:09:42;95662.00;;;12.25;100.00
49451;BME280;35336;48.400;10.886;2023-08-30T00:09:58;95644.25;;;12.12;100.00
49451;BME280;35336;48.400;10.886;2023-08-30T00:10:16;95664.66;;;12.25;100.00
49451;BME280;35336;48.400;10.886;2023-08-30T00:10:31;95655.25;;;12.22;100.00
49451;BME280;35336;48.400;10.886;2023-08-30T00:10:47;95665.50;;;12.26;100.00
49451;BME280;35336;48.400;10.886;2023-08-30T00:11:02;95661.75;;;12.27;100.00
49451;BME280;35336;48.400;10.886;2023-08-30T00:11:20;95668.31;;;12.31;100.00
49451;BME280;35336;48.400;10.886;2023-08-30T00:11:35;95668.31;;;12.31;100.00
49451;BME280;35336;48.400;10.886;2023-08-30T00:11:51;95647.88;;;12.18;100.00
49451;BME280;35336;48.400;10.886;2023-08-30T00:12:06;95661.75;;;12.27;100.00
49451;BME280;35336;48.400;10.886;2023-08-30T00:12:24;95663.19;;;12.29;100.00
49451;BME280;35336;48.400;10.886;2023-08-30T00:12:39;95666.91;;;12.28;100.00
49451;BME280;35336;48.400;10.886;2023-08-30T00:12:57;95654.34;;;12.29;100.00
49451;BME280;35336;48.400;10.886;2023-08-30T00:13:13;95654.44;;;12.22;100.00
49451;BME280;35336;48.400;10.886;2023-08-30T00:13:32;95663.84;;;12.25;100.00
49451;BME280;35336;48.400;10.886;2023-08-30T00:13:47;95661.75;;;12.27;100.00
49451;BME280;35336;48.400;10.886;2023-08-30T00:14:04;95660.53;;;12.29;100.00
49451;BME280;35336;48.400;10.886;2023-08-30T00:14:23;95671.66;;;12.26;100.00
49451;BME280;35336;48.400;10.886;2023-08-30T00:14:40;95667.94;;;12.27;100.00
49451;BME280;35336;48.400;10.886;2023-08-30T00:14:56;95657.13;;;12.22;100.00
49451;BME280;35336;48.400;10.886;2023-08-30T00:15:11;95668.38;;;12.24;100.00
49451;BME280;35336;48.400;10.886;2023-08-30T00:15:27;95663.50;;;12.21;100.00
49451;BME280;35336;48.400;10.886;2023-08-30T00:15:42;95664.06;;;12.23;100.00
49451;BME280;35336;48.400;10.886;2023-08-30T00:15:58;95670.25;;;12.23;100.00
49451;BME280;35336;48.400;10.886;2023-08-30T00:16:15;95655.84;;;12.25;100.00
49451;BME280;35336;48.400;10.886;2023-08-30T00:16:31;95670.84;;;12.26;100.00
49451;BME280;35336;48.400;10.886;2023-08-30T00:16:46;95661.38;;;12.23;100.00
49451;BME280;35336;48.400;10.886;2023-08-30T00:17:02;95665.13;;;12.22;100.00
49451;BME280;35336;48.400;10.886;2023-08-30T00:17:20;95663.50;;;12.21;100.00
49451;BME280;35336;48.400;10.886;2023-08-30T00:17:35;95665.69;;;12.24;100.00
49451;BME280;35336;48.400;10.886;2023-08-30T00:17:50;95663.50;;;12.21;100.00
49451;BME280;35336;48.400;10.886;2023-08-30T00:18:08;95658.56;;;12.18;100.00
49451;BME280;35336;48.400;10.886;2023-08-30T00:18:23;95666.31;;;12.26;100.00
49451;BME280;35336;48.400;10.886;2023-08-30T00:18:41;95663.63;;;12.26;100.00
49451;BME280;35336;48.400;10.886;2023-08-30T00:18:56;95671.66;;;12.26;100.00
49451;BME280;35336;48.400;10.886;2023-08-30T00:19:11;95660.59;;;12.22;100.00
49451;BME280;35336;48.400;10.886;2023-08-30T00:19:29;95648.34;;;12.15;100.00
49451;BME280;35336;48.400;10.886;2023-08-30T00:19:46;95658.56;;;12.18;100.00
49451;BME280;35336;48.400;10.886;2023-08-30T00:20:02;95662.00;;;12.25;100.00
49451;BME280;35336;48.400;10.886;2023-08-30T00:20:20;95672.44;;;12.27;100.00
49451;BME280;35336;48.400;10.886;2023-08-30T00:20:36;95666.06;;;12.28;100.00
49451;BME280;35336;48.400;10.886;2023-08-30T00:20:51;95642.41;;;12.13;100.00
49451;BME280;35336;48.400;10.886;2023-08-30T00:21:06;95654.88;;;12.19;100.00
49451;BME280;35336;48.400;10.886;2023-08-30T00:21:21;95659.78;;;12.22;100.00
49451;BME280;35336;48.400;10.886;2023-08-30T00:21:39;95665.50;;;12.26;100.00
49451;BME280;35336;48.400;10.886;2023-08-30T00:21:54;95666.91;;;12.28;100.00
49451;BME280;35336;48.400;10.886;2023-08-30T00:22:10;95666.66;;;12.30;100.00
49451;BME280;35336;48.400;10.886;2023-08-30T00:22:25;95664.44;;;12.27;100.00
49451;BME280;35336;48.400;10.886;2023-08-30T00:22:40;95661.19;;;12.25;100.00
49451;BME280;35336;48.400;10.886;2023-08-30T00:22:56;95657.91;;;12.22;100.00
49451;BME280;35336;48.400;10.886;2023-08-30T00:23:11;95657.53;;;12.19;100.00
49451;BME280;35336;48.400;10.886;2023-08-30T00:23:26;95668.97;;;12.26;100.00
49451;BME280;35336;48.400;10.886;2023-08-30T00:23:42;95665.25;;;12.27;100.00
49451;BME280;35336;48.400;10.886;2023-08-30T00:24:00;95666.31;;;12.26;100.00
49451;BME280;35336;48.400;10.886;2023-08-30T00:24:15;95662.59;;;12.27;100.00
49451;BME280;35336;48.400;10.886;2023-08-30T00:24:30;95669.56;;;12.28;100.00
49451;BME280;35336;48.400;10.886;2023-08-30T00:24:46;95651.16;;;12.20;100.00
49451;BME280;35336;48.400;10.886;2023-08-30T00:25:03;95657.69;;;12.24;100.00
49451;BME280;35336;48.400;10.886;2023-08-30T00:25:19;95671.78;;;12.31;100.00
49451;BME280;35336;48.400;10.886;2023-08-30T00:25:34;95662.13;;;12.30;100.00
49451;BME280;35336;48.400;10.886;2023-08-30T00:25:51;95664.59;;;12.32;100.00
49451;BME280;35336;48.400;10.886;2023-08-30T00:26:07;95646.63;;;12.20;100.00
49451;BME280;35336;48.400;10.886;2023-08-30T00:26:22;95661.38;;;12.23;100.00
49451;BME280;35336;48.400;10.886;2023-08-30T00:26:37;95661.38;;;12.23;100.00
49451;BME280;35336;48.400;10.886;2023-08-30T00:26:56;95650.56;;;12.18;100.00
49451;BME280;35336;48.400;10.886;2023-08-30T00:27:16;95667.47;;;12.30;100.00
49451;BME280;35336;48.400;10.886;2023-08-30T00:27:31;95653.22;;;12.18;100.00
49451;BME280;35336;48.400;10.886;2023-08-30T00:27:46;95665.50;;;12.26;100.00
49451;BME280;35336;48.400;10.886;2023-08-30T00:28:02;95653.84;;;12.20;100.00
49451;BME280;35336;48.400;10.886;2023-08-30T00:28:17;95644.25;;;12.12;100.00
49451;BME280;35336;48.400;10.886;2023-08-30T00:28:34;95653.69;;;12.15;100.00
49451;BME280;35336;48.400;10.886;2023-08-30T00:28:55;95661.38;;;12.23;100.00
49451;BME280;35336;48.400;10.886;2023-08-30T00:29:10;95659.97;;;12.20;100.00
49451;BME280;35336;48.400;10.886;2023-08-30T00:29:28;95649.59;;;12.12;100.00
49451;BME280;35336;48.400;10.886;2023-08-30T00:29:45;95660.81;;;12.21;100.00
49451;BME280;35336;48.400;10.886;2023-08-30T00:30:01;95671.28;;;12.22;100.00
49451;BME280;35336;48.400;10.886;2023-08-30T00:30:16;95665.94;;;12.22;100.00
49451;BME280;35336;48.400;10.886;2023-08-30T00:30:31;95666.53;;;12.25;100.00
49451;BME280;35336;48.400;10.886;2023-08-30T00:30:52;95638.53;;;12.08;100.00
49451;BME280;35336;48.400;10.886;2023-08-30T00:31:08;95661.31;;;12.30;100.00
49451;BME280;35336;48.400;10.886;2023-08-30T00:31:26;95649.91;;;12.22;100.00
49451;BME280;35336;48.400;10.886;2023-08-30T00:31:41;95649.28;;;12.20;100.00
49451;BME280;35336;48.400;10.886;2023-08-30T00:31:56;95655.19;;;12.29;100.00
49451;BME280;35336;48.400;10.886;2023-08-30T00:32:14;95656.41;;;12.27;100.00
49451;BME280;35336;48.400;10.886;2023-08-30T00:32:29;95655.38;;;12.28;100.00
49451;BME280;35336;48.400;10.886;2023-08-30T00:32:47;95647.47;;;12.21;100.00
49451;BME280;35336;48.400;10.886;2023-08-30T00:33:02;95648.50;;;12.20;100.00
49451;BME280;35336;48.400;10.886;2023-08-30T00:33:18;95658.88;;;12.28;100.00
49451;BME280;35336;48.400;10.886;2023-08-30T00:33:35;95659.44;;;12.30;100.00
49451;BME280;35336;48.400;10.886;2023-08-30T00:33:50;95662.13;;;12.30;100.00
49451;BME280;35336;48.400;10.886;2023-08-30T00:34:06;95656.66;;;12.25;100.00
49451;BME280;35336;48.400;10.886;2023-08-30T00:34:21;95657.25;;;12.27;100.00
49451;BME280;35336;48.400;10.886;2023-08-30T00:34:38;95657.38;;;12.32;100.00
49451;BME280;35336;48.400;10.886;2023-08-30T00:34:54;95649.66;;;12.24;100.00
49451;BME280;35336;48.400;10.886;2023-08-30T00:35:11;95639.88;;;12.18;100.00
49451;BME280;35336;48.400;10.886;2023-08-30T00:35:26;95663.56;;;12.33;100.00
49451;BME280;35336;48.400;10.886;2023-08-30T00:35:42;95656.78;;;12.30;100.00
49451;BME280;35336;48.400;10.886;2023-08-30T00:35:58;95665.88;;;12.29;100.00
49451;BME280;35336;48.400;10.886;2023-08-30T00:36:16;95635.00;;;12.15;100.00
49451;BME280;35336;48.400;10.886;2023-08-30T00:36:34;95651.31;;;12.25;100.00
49451;BME280;35336;48.400;10.886;2023-08-30T00:36:50;95654.34;;;12.29;100.00
49451;BME280;35336;48.400;10.886;2023-08-30T00:37:05;95658.28;;;12.26;100.00
49451;BME280;35336;48.400;10.886;2023-08-30T00:37:23;95658.88;;;12.28;100.00
49451;BME280;35336;48.400;10.886;2023-08-30T00:37:38;95659.44;;;12.30;100.00
49451;BME280;35336;48.400;10.886;2023-08-30T00:37:53;95668.06;;;12.32;100.00
49451;BME280;35336;48.400;10.886;2023-08-30T00:38:11;95658.88;;;12.28;100.00
49451;BME280;35336;48.400;10.886;2023-08-30T00:38:27;95650.69;;;12.23;100.00
49451;BME280;35336;48.400;10.886;2023-08-30T00:38:42;95665.63;;;12.31;100.00
49451;BME280;35336;48.400;10.886;2023-08-30T00:38:58;95655.19;;;12.29;100.00
49451;BME280;35336;48.400;10.886;2023-08-30T00:39:13;95649.09;;;12.22;100.00
49451;BME280;35336;48.400;10.886;2023-08-30T00:39:31;95663.75;;;12.31;100.00
49451;BME280;35336;48.400;10.886;2023-08-30T00:39:46;95630.88;;;12.12;100.00
49451;BME280;35336;48.400;10.886;2023-08-30T00:40:02;95657.84;;;12.29;100.00
49451;BME280;35336;48.400;10.886;2023-08-30T00:40:19;95659.31;;;12.25;100.00
49451;BME280;35336;48.400;10.886;2023-08-30T00:40:39;95652.56;;;12.22;100.00
49451;BME280;35336;48.400;10.886;2023-08-30T00:40:55;95662.34;;;12.29;100.00
49451;BME280;35336;48.400;10.886;2023-08-30T00:41:10;95662.00;;;12.25;100.00
49451;BME280;35336;48.400;10.886;2023-08-30T00:41:28;95638.69;;;12.14;100.00
49451;BME280;35336;48.400;10.886;2023-08-30T00:41:45;95638.69;;;12.14;100.00
49451;BME280;35336;48.400;10.886;2023-08-30T00:42:01;95655.63;;;12.26;100.00
49451;BME280;35336;48.400;10.886;2023-08-30T00:42:16;95662.59;;;12.27;100.00
49451;BME280;35336;48.400;10.886;2023-08-30T00:42:31;95661.56;;;12.28;100.00
49451;BME280;35336;48.400;10.886;2023-08-30T00:42:47;95648.13;;;12.16;100.00
49451;BME280;35336;48.400;10.886;2023-08-30T00:43:02;95665.50;;;12.26;100.00
49451;BME280;35336;48.400;10.886;2023-08-30T00:43:18;95657.13;;;12.22;100.00
49451;BME280;35336;48.400;10.886;2023-08-30T00:43:33;95656.28;;;12.21;100.00
49451;BME280;35336;48.400;10.886;2023-08-30T00:43:49;95661.75;;;12.27;100.00
49451;BME280;35336;48.400;10.886;2023-08-30T00:44:04;95663.41;;;12.28;100.00
49451;BME280;35336;48.400;10.886;2023-08-30T00:44:22;95655.25;;;12.22;100.00
49451;BME280;35336;48.400;10.886;2023-08-30T00:44:38;95660.97;;;12.26;100.00
49451;BME280;35336;48.400;10.886;2023-08-30T00:44:53;95657.47;;;12.26;100.00
49451;BME280;35336;48.400;10.886;2023-08-30T00:45:09;95665.03;;;12.29;100.00
49451;BME280;35336;48.400;10.886;2023-08-30T00:45:26;95659.09;;;12.27;100.00
49451;BME280;35336;48.400;10.886;2023-08-30T00:45:41;95657.25;;;12.27;100.00
49451;BME280;35336;48.400;10.886;2023-08-30T00:45:57;95653.16;;;12.25;100.00
49451;BME280;35336;48.400;10.886;2023-08-30T00:46:13;95645.44;;;12.16;100.00
49451;BME280;35336;48.400;10.886;2023-08-30T00:46:31;95641.94;;;12.16;100.00
49451;BME280;35336;48.400;10.886;2023-08-30T00:46:48;95655.47;;;12.21;100.00
49451;BME280;35336;48.400;10.886;2023-08-30T00:47:03;95654.28;;;12.17;100.00
49451;BME280;35336;48.400;10.886;2023-08-30T00:47:21;95644.09;;;12.07;100.00
49451;BME280;35336;48.400;10.886;2023-08-30T00:47:39;95650.28;;;12.07;100.00
49451;BME280;35336;48.400;10.886;2023-08-30T00:47:54;95653.09;;;12.13;100.00
49451;BME280;35336;48.400;10.886;2023-08-30T00:48:10;95649.69;;;12.05;100.00
49451;BME280;35336;48.400;10.886;2023-08-30T00:48:26;95648.66;;;12.06;100.00
49451;BME280;35336;48.400;10.886;2023-08-30T00:48:43;95646.19;;;12.05;100.00
49451;BME280;35336;48.400;10.886;2023-08-30T00:49:02;95637.78;;;12.01;100.00
49451;BME280;35336;48.400;10.886;2023-08-30T00:49:18;95663.13;;;12.17;100.00
49451;BME280;35336;48.400;10.886;2023-08-30T00:49:33;95656.13;;;12.16;100.00
49451;BME280;35336;48.400;10.886;2023-08-30T00:49:49;95666.00;;;12.16;100.00
49451;BME280;35336;48.400;10.886;2023-08-30T00:50:08;95656.00;;;12.11;100.00
49451;BME280;35336;48.400;10.886;2023-08-30T00:50:26;95660.88;;;12.14;100.00
49451;BME280;35336;48.400;10.886;2023-08-30T00:50:42;95655.31;;;12.16;100.00
49451;BME280;35336;48.400;10.886;2023-08-30T00:50:57;95650.41;;;12.13;100.00
49451;BME280;35336;48.400;10.886;2023-08-30T00:51:13;95657.97;;;12.16;100.00
49451;BME280;35336;48.400;10.886;2023-08-30T00:51:28;95653.69;;;12.15;100.00
49451;BME280;35336;48.400;10.886;2023-08-30T00:51:44;95656.94;;;12.17;100.00
49451;BME280;35336;48.400;10.886;2023-08-30T00:52:05;95660.22;;;12.19;100.00
49451;BME280;35336;48.400;10.886;2023-08-30T00:52:23;95656.13;;;12.16;100.00
49451;BME280;35336;48.400;10.886;2023-08-30T00:52:43;95654.13;;;12.12;100.00
49451;BME280;35336;48.400;10.886;2023-08-30T00:52:59;95642.69;;;12.04;100.00
49451;BME280;35336;48.400;10.886;2023-08-30T00:53:18;95654.13;;;12.12;100.00
49451;BME280;35336;48.400;10.886;2023-08-30T00:53:33;95659.03;;;12.15;100.00
49451;BME280;35336;48.400;10.886;2023-08-30T00:53:49;95653.09;;;12.13;100.00
49451;BME280;35336;48.400;10.886;2023-08-30T00:54:04;95657.03;;;12.10;100.00
49451;BME280;35336;48.400;10.886;2023-08-30T00:54:19;95633.66;;;12.05;100.00
49451;BME280;35336;48.400;10.886;2023-08-30T00:54:39;95657.97;;;12.16;100.00
49451;BME280;35336;48.400;10.886;2023-08-30T00:54:58;95649.38;;;12.14;100.00
49451;BME280;35336;48.400;10.886;2023-08-30T00:55:13;95655.78;;;12.13;100.00
49451;BME280;35336;48.400;10.886;2023-08-30T00:55:29;95652.06;;;12.14;100.00
49451;BME280;35336;48.400;10.886;2023-08-30T00:55:44;95658.81;;;12.16;100.00
49451;BME280;35336;48.400;10.886;2023-08-30T00:56:02;95644.72;;;12.09;100.00
49451;BME280;35336;48.400;10.886;2023-08-30T00:56:18;95656.13;;;12.16;100.00
49451;BME280;35336;48.400;10.886;2023-08-30T00:56:33;95656.13;;;12.16;100.00
49451;BME280;35336;48.400;10.886;2023-08-30T00:56:49;95653.91;;;12.13;100.00
49451;BME280;35336;48.400;10.886;2023-08-30T00:57:06;95655.31;;;12.16;100.00
49451;BME280;35336;48.400;10.886;2023-08-30T00:57:21;95649.44;;;12.07;100.00
49451;BME280;35336;48.400;10.886;2023-08-30T00:57:37;95651.22;;;12.13;100.00
49451;BME280;35336;48.400;10.886;2023-08-30T00:57:52;95647.00;;;12.05;100.00
49451;BME280;35336;48.400;10.886;2023-08-30T00:58:11;95659.47;;;12.12;100.00
49451;BME280;35336;48.400;10.886;2023-08-30T00:58:27;95653.53;;;12.10;100.00
49451;BME280;35336;48.400;10.886;2023-08-30T00:58:45;95652.06;;;12.14;100.00
49451;BME280;35336;48.400;10.886;2023-08-30T00:59:01;95658.56;;;12.18;100.00
49451;BME280;35336;48.400;10.886;2023-08-30T00:59:16;95648.34;;;12.15;100.00
49451;BME280;35336;48.400;10.886;2023-08-30T00:59:34;95647.88;;;12.18;100.00
49451;BME280;35336;48.400;10.886;2023-08-30T00:59:51;95653.59;;;12.21;100.00
49451;BME280;35336;48.400;10.886;2023-08-30T01:00:09;95652.44;;;12.17;100.00
49451;BME280;35336;48.400;10.886;2023-08-30T01:00:27;95654.88;;;12.19;100.00
49451;BME280;35336;48.400;10.886;2023-08-30T01:00:44;95653.22;;;12.18;100.00
49451;BME280;35336;48.400;10.886;2023-08-30T01:00:59;95652.06;;;12.14;100.00
49451;BME280;35336;48.400;10.886;2023-08-30T01:01:18;95662.09;;;12.18;100.00
49451;BME280;35336;48.400;10.886;2023-08-30T01:01:33;95657.41;;;12.14;100.00
49451;BME280;35336;48.400;10.886;2023-08-30T01:01:48;95645.13;;;12.06;100.00
49451;BME280;35336;48.400;10.886;2023-08-30T01:02:06;95652.50;;;12.11;100.00
49451;BME280;35336;48.400;10.886;2023-08-30T01:02:22;95661.53;;;12.10;100.00
49451;BME280;35336;48.400;10.886;2023-08-30T01:02:37;95656.44;;;12.08;100.00
49451;BME280;35336;48.400;10.886;2023-08-30T01:02:55;95649.09;;;12.03;100.00
49451;BME280;35336;48.400;10.886;2023-08-30T01:03:10;95663.66;;;12.07;100.00
49451;BME280;35336;48.400;10.886;2023-08-30T01:03:26;95660.38;;;12.05;100.00
49451;BME280;35336;48.400;10.886;2023-08-30T01:03:41;95651.38;;;12.00;100.00
49451;BME280;35336;48.400;10.886;2023-08-30T01:03:56;95663.66;;;12.07;100.00
49451;BME280;35336;48.400;10.886;2023-08-30T01:04:11;95659.34;;;12.06;100.00
49451;BME280;35336;48.400;10.886;2023-08-30T01:04:27;95661.13;;;12.13;100.00
49451;BME280;35336;48.400;10.886;2023-08-30T01:04:42;95657.59;;;12.12;100.00
49451;BME280;35336;48.400;10.886;2023-08-30T01:04:58;95651.88;;;12.08;100.00
49451;BME280;35336;48.400;10.886;2023-08-30T01:05:13;95659.47;;;12.12;100.00
49451;BME280;35336;48.400;10.886;2023-08-30T01:05:28;95636.38;;;11.99;100.00
49451;BME280;35336;48.400;10.886;2023-08-30T01:05:44;95653.31;;;12.11;100.00
49451;BME280;35336;48.400;10.886;2023-08-30T01:05:59;95642.69;;;12.04;100.00
49451;BME280;35336;48.400;10.886;2023-08-30T01:06:14;95658.44;;;12.13;100.00
49451;BME280;35336;48.400;10.886;2023-08-30T01:06:32;95655.41;;;12.09;100.00
49451;BME280;35336;48.400;10.886;2023-08-30T01:06:47;95661.72;;;12.15;100.00
49451;BME280;35336;48.400;10.886;2023-08-30T01:07:02;95656.81;;;12.12;100.00
49451;BME280;35336;48.400;10.886;2023-08-30T01:07:22;95664.38;;;12.15;100.00
49451;BME280;35336;48.400;10.886;2023-08-30T01:07:38;95665.19;;;12.15;100.00
49451;BME280;35336;48.400;10.886;2023-08-30T01:07:53;95663.31;;;12.16;100.00
49451;BME280;35336;48.400;10.886;2023-08-30T01:08:09;95668.09;;;12.14;100.00
49451;BME280;35336;48.400;10.886;2023-08-30T01:08:24;95658.06;;;12.09;100.00
49451;BME280;35336;48.400;10.886;2023-08-30T01:08:41;95653.16;;;12.06;100.00
49451;BME280;35336;48.400;10.886;2023-08-30T01:08:59;95647.00;;;12.05;100.00
49451;BME280;35336;48.400;10.886;2023-08-30T01:09:15;95649.59;;;12.12;100.00
49451;BME280;35336;48.400;10.886;2023-08-30T01:09:31;95663.78;;;12.13;100.00
49451;BME280;35336;48.400;10.886;2023-08-30T01:09:48;95634.53;;;11.99;100.00
49451;BME280;35336;48.400;10.886;2023-08-30T01:10:06;95652.97;;;12.07;100.00
49451;BME280;35336;48.400;10.886;2023-08-30T01:10:27;95660.28;;;12.12;100.00
49451;BME280;35336;48.400;10.886;2023-08-30T01:10:47;95651.69;;;12.10;100.00
49451;BME280;35336;48.400;10.886;2023-08-30T01:12:29;95665.19;;;12.15;100.00
49451;BME280;35336;48.400;10.886;2023-08-30T01:12:49;95649.44;;;12.07;100.00
49451;BME280;35336;48.400;10.886;2023-08-30T01:13:12;95660.88;;;12.14;100.00
49451;BME280;35336;48.400;10.886;2023-08-30T01:13:30;95656.56;;;12.13;100.00
49451;BME280;35336;48.400;10.886;2023-08-30T01:13:53;95658.22;;;12.14;100.00
49451;BME280;35336;48.400;10.886;2023-08-30T01:14:15;95656.56;;;12.13;100.00
49451;BME280;35336;48.400;10.886;2023-08-30T01:15:33;95655.16;;;12.11;100.00
49451;BME280;35336;48.400;10.886;2023-08-30T01:15:51;95657.47;;;12.07;100.00
49451;BME280;35336;48.400;10.886;2023-08-30T01:16:08;95657.25;;;12.08;100.00
49451;BME280;35336;48.400;10.886;2023-08-30T01:16:26;95640.94;;;11.98;100.00
49451;BME280;35336;48.400;10.886;2023-08-30T01:16:46;95659.09;;;12.08;100.00
49451;BME280;35336;48.400;10.886;2023-08-30T01:17:02;95662.81;;;12.07;100.00
49451;BME280;35336;48.400;10.886;2023-08-30T01:17:20;95664.22;;;12.10;100.00
49451;BME280;35336;48.400;10.886;2023-08-30T01:17:41;95660.97;;;12.07;100.00
49451;BME280;35336;48.400;10.886;2023-08-30T01:17:57;95655.81;;;12.06;100.00
49451;BME280;35336;48.400;10.886;2023-08-30T01:18:13;95651.38;;;12.00;100.00
49451;BME280;35336;48.400;10.886;2023-08-30T01:18:33;95657.69;;;12.05;100.00
49451;BME280;35336;48.400;10.886;2023-08-30T01:18:57;95664.22;;;12.10;100.00
49451;BME280;35336;48.400;10.886;2023-08-30T01:19:47;95658.31;;;12.07;100.00
49451;BME280;35336;48.400;10.886;2023-08-30T01:20:05;95652.97;;;12.07;100.00
49451;BME280;35336;48.400;10.886;2023-08-30T01:20:23;95656.00;;;12.11;100.00
49451;BME280;35336;48.400;10.886;2023-08-30T01:20:41;95661.78;;;12.08;100.00
49451;BME280;35336;48.400;10.886;2023-08-30T01:21:04;95651.31;;;12.06;100.00
49451;BME280;35336;48.400;10.886;2023-08-30T01:22:05;95651.31;;;12.06;100.00
49451;BME280;35336;48.400;10.886;2023-08-30T01:22:40;95651.69;;;12.10;100.00
49451;BME280;35336;48.400;10.886;2023-08-30T01:23:12;95651.88;;;12.08;100.00
49451;BME280;35336;48.400;10.886;2023-08-30T01:24:01;95647.63;;;12.07;100.00
49451;BME280;35336;48.400;10.886;2023-08-30T01:24:28;95650.84;;;12.10;100.00
49451;BME280;35336;48.400;10.886;2023-08-30T01:26:13;95649.03;;;12.10;100.00
49451;BME280;35336;48.400;10.886;2023-08-30T01:26:45;95644.47;;;12.11;100.00
49451;BME280;35336;48.400;10.886;2023-08-30T01:27:13;95647.53;;;12.14;100.00
49451;BME280;35336;48.400;10.886;2023-08-30T01:27:30;95639.50;;;12.14;100.00
49451;BME280;35336;48.400;10.886;2023-08-30T01:27:48;95645.88;;;12.13;100.00
49451;BME280;35336;48.400;10.886;2023-08-30T01:28:05;95646.34;;;12.10;100.00
49451;BME280;35336;48.400;10.886;2023-08-30T01:28:24;95641.44;;;12.07;100.00
49451;BME280;35336;48.400;10.886;2023-08-30T01:28:41;95649.22;;;12.08;100.00
49451;BME280;35336;48.400;10.886;2023-08-30T01:29:00;95630.84;;;12.00;100.00
49451;BME280;35336;48.400;10.886;2023-08-30T01:29:18;95645.31;;;12.11;100.00
49451;BME280;35336;48.400;10.886;2023-08-30T01:29:36;95630.97;;;12.05;100.00
49451;BME280;35336;48.400;10.886;2023-08-30T01:29:54;95642.28;;;12.07;100.00
49451;BME280;35336;48.400;10.886;2023-08-30T01:30:10;95646.13;;;12.12;100.00
49451;BME280;35336;48.400;10.886;2023-08-30T01:30:27;95644.34;;;12.05;100.00
49451;BME280;35336;48.400;10.886;2023-08-30T01:30:44;95629.19;;;11.99;100.00
49451;BME280;35336;48.400;10.886;2023-08-30T01:31:00;95648.78;;;12.12;100.00
49451;BME280;35336;48.400;10.886;2023-08-30T01:31:20;95647.16;;;12.11;100.00
49451;BME280;35336;48.400;10.886;2023-08-30T01:31:39;95642.84;;;12.10;100.00
49451;BME280;35336;48.400;10.886;2023-08-30T01:31:59;95643.44;;;12.12;100.00
49451;BME280;35336;48.400;10.886;2023-08-30T01:32:15;95646.13;;;12.12;100.00
49451;BME280;35336;48.400;10.886;2023-08-30T01:32:32;95641.81;;;12.11;100.00
49451;BME280;35336;48.400;10.886;2023-08-30T01:32:49;95648.34;;;12.15;100.00
49451;BME280;35336;48.400;10.886;2023-08-30T01:33:05;95638.53;;;12.08;100.00